Time;durP1;ratioP1;P1;durP2;ratioP2;P2;SDS_P1;SDS_P2;PMS_P1;PMS_P2;Temp;Humidity;BMP_temperature;BMP_pressure;BME280_temperature;BME280_humidity;BME280_pressure;Samples;Min_cycle;Max_cycle;Signal;HPM_P1;HPM_P2
2021/01/27 00:00:30;;;;;;;6.30;2.67;;;-0.20;99.90;;;;;;5035945;28;20057;-82
2021/01/27 00:02:55;;;;;;;9.80;2.77;;;-0.20;99.90;;;;;;5017984;28;20477;-82
2021/01/27 00:05:34;;;;;;;7.17;2.57;;;-0.20;99.90;;;;;;5035701;28;20033;-82
2021/01/27 00:08:00;;;;;;;5.23;3.00;;;-0.10;99.90;;;;;;5035966;28;20441;-82
2021/01/27 00:10:27;;;;;;;6.33;3.27;;;-0.20;99.90;;;;;;5035611;28;20060;-82
2021/01/27 00:12:52;;;;;;;5.63;3.00;;;-0.20;99.90;;;;;;5035627;28;20026;-82
2021/01/27 00:15:22;;;;;;;5.40;3.27;;;-0.30;99.90;;;;;;5035917;28;20029;-82
2021/01/27 00:17:47;;;;;;;4.03;3.13;;;-0.20;99.90;;;;;;5017752;28;20021;-82
2021/01/27 00:20:16;;;;;;;8.17;3.17;;;-0.20;99.90;;;;;;5035533;28;20530;-82
2021/01/27 00:22:41;;;;;;;4.83;2.90;;;-0.20;99.90;;;;;;5035643;28;20443;-82
2021/01/27 00:25:08;;;;;;;6.70;3.20;;;-0.20;99.90;;;;;;5035430;28;20025;-82
2021/01/27 00:27:34;;;;;;;7.47;2.77;;;-0.20;99.90;;;;;;5017576;28;20251;-82
2021/01/27 00:30:00;;;;;;;5.87;3.23;;;-0.10;99.90;;;;;;5035452;28;20130;-82
2021/01/27 00:32:28;;;;;;;4.83;2.83;;;-0.20;99.90;;;;;;5017579;28;20029;-82
2021/01/27 00:34:54;;;;;;;6.33;3.00;;;-0.20;99.90;;;;;;5035451;28;20045;-82
2021/01/27 00:37:21;;;;;;;6.73;3.00;;;-0.20;99.90;;;;;;5035141;28;20029;-82
2021/01/27 00:39:46;;;;;;;8.33;3.30;;;-0.30;99.90;;;;;;5035419;28;20036;-82
2021/01/27 00:42:12;;;;;;;8.63;3.00;;;-0.20;99.90;;;;;;5035107;28;20327;-82
2021/01/27 00:44:37;;;;;;;5.80;3.40;;;-0.20;99.90;;;;;;5035002;28;20030;-82
2021/01/27 00:47:03;;;;;;;5.03;2.87;;;-0.20;99.90;;;;;;5017265;28;20171;-82
2021/01/27 00:49:28;;;;;;;4.37;2.83;;;-0.20;99.90;;;;;;5035036;28;20104;-82
2021/01/27 00:51:54;;;;;;;15.40;4.50;;;-0.30;99.90;;;;;;5017134;28;20485;-82
2021/01/27 00:54:20;;;;;;;5.17;2.67;;;-0.30;99.90;;;;;;5034890;28;20053;-82
2021/01/27 00:56:45;;;;;;;4.83;2.83;;;-0.30;99.90;;;;;;5033736;28;20085;-82
2021/01/27 00:59:11;;;;;;;5.53;2.80;;;-0.40;99.90;;;;;;5034833;28;20025;-81
2021/01/27 01:01:36;;;;;;;7.20;3.10;;;-0.40;99.90;;;;;;5034694;28;20061;-82
2021/01/27 01:04:03;;;;;;;7.10;3.00;;;-0.40;99.90;;;;;;5034820;28;20382;-82
2021/01/27 01:06:29;;;;;;;5.03;3.10;;;-0.40;99.90;;;;;;5034622;28;20061;-82
2021/01/27 01:08:55;;;;;;;5.30;3.23;;;-0.50;99.90;;;;;;5016728;28;20508;-82
2021/01/27 01:11:20;;;;;;;6.73;3.30;;;-0.60;99.90;;;;;;5034562;28;20113;-82
2021/01/27 01:13:46;;;;;;;4.87;3.00;;;-0.60;99.90;;;;;;5034498;28;20029;-82
2021/01/27 01:16:11;;;;;;;5.67;3.10;;;-0.70;99.90;;;;;;5034608;28;20402;-82
2021/01/27 01:18:37;;;;;;;4.77;3.03;;;-0.60;99.90;;;;;;5034444;28;20034;-83
2021/01/27 01:21:03;;;;;;;6.20;3.17;;;-0.60;99.90;;;;;;5034383;28;20413;-83
2021/01/27 01:23:28;;;;;;;6.73;3.40;;;-0.60;99.90;;;;;;5034324;28;20382;-82
2021/01/27 01:25:54;;;;;;;9.63;2.80;;;-0.60;99.90;;;;;;5017076;28;20036;-83
2021/01/27 01:28:21;;;;;;;5.73;2.90;;;-0.70;99.90;;;;;;5016415;28;20026;-82
2021/01/27 01:30:48;;;;;;;3.83;2.80;;;-0.70;99.90;;;;;;5034052;28;20037;-82
2021/01/27 01:33:20;;;;;;;6.93;2.87;;;-0.70;99.90;;;;;;5034448;28;20052;-82
2021/01/27 01:35:46;;;;;;;5.13;2.97;;;-0.60;99.90;;;;;;5034250;28;20026;-82
2021/01/27 01:38:13;;;;;;;6.57;2.70;;;-0.60;99.90;;;;;;5034010;28;20025;-82
2021/01/27 01:40:42;;;;;;;5.73;3.30;;;-0.60;99.90;;;;;;5034015;28;20029;-82
2021/01/27 01:43:21;;;;;;;5.47;2.80;;;-0.60;99.90;;;;;;5033844;28;20108;-82
2021/01/27 01:45:51;;;;;;;4.77;3.00;;;-0.60;99.90;;;;;;5034422;28;20025;-82
2021/01/27 01:48:38;;;;;;;7.93;3.17;;;-0.60;99.90;;;;;;5033773;28;20132;-82
2021/01/27 01:51:09;;;;;;;6.47;3.10;;;-0.50;99.90;;;;;;5033781;28;20037;-82
2021/01/27 01:53:35;;;;;;;4.27;2.97;;;-0.60;99.90;;;;;;5033791;28;20029;-82
2021/01/27 01:56:05;;;;;;;6.60;3.10;;;-0.50;99.90;;;;;;5033556;28;20029;-82
2021/01/27 01:58:32;;;;;;;5.17;2.90;;;-0.50;99.90;;;;;;5033906;28;20474;-82
2021/01/27 02:01:00;;;;;;;4.27;3.00;;;-0.50;99.90;;;;;;5033690;28;20033;-82
2021/01/27 02:03:32;;;;;;;5.13;2.90;;;-0.50;99.90;;;;;;5033477;28;20487;-82
2021/01/27 02:05:59;;;;;;;5.43;2.97;;;-0.50;99.90;;;;;;5033509;28;20026;-82
2021/01/27 02:08:26;;;;;;;6.33;2.93;;;-0.50;99.90;;;;;;5015544;28;20124;-82
2021/01/27 02:10:52;;;;;;;3.97;2.80;;;-0.50;99.90;;;;;;5033371;28;20037;-82
2021/01/27 02:13:36;;;;;;;7.60;2.97;;;-0.50;99.90;;;;;;5033374;28;20109;-82
2021/01/27 02:16:22;;;;;;;5.10;2.90;;;-0.50;99.90;;;;;;5033651;28;20422;-82
2021/01/27 02:19:06;;;;;;;5.97;2.80;;;-0.40;99.90;;;;;;5033292;28;20021;-82
2021/01/27 02:21:41;;;;;;;7.97;3.80;;;-0.40;99.90;;;;;;5031980;28;20037;-82
2021/01/27 02:24:24;;;;;;;4.72;2.72;;;-0.60;99.90;;;;;;5015510;28;20034;-82
2021/01/27 02:27:23;;;;;;;4.63;2.60;;;-0.60;99.90;;;;;;5033149;28;20478;-82
2021/01/27 02:29:54;;;;;;;3.33;2.50;;;-0.60;99.90;;;;;;5033261;28;20026;-82
2021/01/27 02:32:38;;;;;;;5.50;2.50;;;-0.50;99.90;;;;;;5033112;28;20025;-82
2021/01/27 02:35:25;;;;;;;6.77;2.97;;;-0.60;99.90;;;;;;5031849;28;20146;-82
2021/01/27 02:38:16;;;;;;;6.47;3.40;;;-0.70;99.90;;;;;;5033096;28;20072;-82
2021/01/27 02:41:02;;;;;;;7.67;3.17;;;-0.80;99.90;;;;;;5033040;28;20076;-82
2021/01/27 02:43:37;;;;;;;9.60;3.08;;;-0.90;99.90;;;;;;5033069;28;20026;-82
2021/01/27 02:46:10;;;;;;;6.23;2.77;;;-1.00;99.90;;;;;;5033265;28;20043;-82
2021/01/27 02:48:38;;;;;;;9.80;2.90;;;-1.10;99.90;;;;;;5032985;28;20026;-82
2021/01/27 02:51:15;;;;;;;3.90;2.60;;;-1.20;99.90;;;;;;5032864;28;20415;-82
2021/01/27 02:53:51;;;;;;;5.23;2.60;;;-1.30;99.90;;;;;;5032898;28;20022;-82
2021/01/27 02:56:23;;;;;;;15.93;3.80;;;-1.30;99.90;;;;;;5032648;28;20147;-82
2021/01/27 02:59:05;;;;;;;4.50;2.97;;;-1.40;99.90;;;;;;5032941;28;20022;-82
2021/01/27 03:01:48;;;;;;;4.47;3.27;;;-1.60;99.90;;;;;;5032914;28;20558;-82
2021/01/27 03:04:20;;;;;;;5.30;3.17;;;-1.70;99.90;;;;;;5032760;28;20026;-82
2021/01/27 03:06:47;;;;;;;5.53;2.83;;;-1.80;99.90;;;;;;5032753;28;20463;-82
2021/01/27 03:09:19;;;;;;;5.83;2.70;;;-1.80;99.90;;;;;;5032809;28;20040;-82
2021/01/27 03:11:45;;;;;;;6.60;2.73;;;-1.90;99.90;;;;;;5032900;28;20191;-82
2021/01/27 03:14:11;;;;;;;4.47;2.90;;;-2.00;99.90;;;;;;5032907;28;20097;-82
2021/01/27 03:16:45;;;;;;;5.77;2.70;;;-2.10;99.90;;;;;;5032736;28;20028;-82
2021/01/27 03:19:23;;;;;;;6.82;2.80;;;-2.20;99.90;;;;;;5032687;28;20018;-82
2021/01/27 03:22:01;;;;;;;6.07;2.93;;;-2.20;99.90;;;;;;5036536;28;20029;-82
2021/01/27 03:24:32;;;;;;;7.13;2.93;;;-2.30;99.90;;;;;;5036537;28;20030;-82
2021/01/27 03:27:09;;;;;;;4.63;2.80;;;-2.40;99.90;;;;;;5036455;28;20029;-82
2021/01/27 03:29:50;;;;;;;5.73;3.10;;;-2.50;99.90;;;;;;5036440;28;20035;-82
2021/01/27 03:32:24;;;;;;;6.70;2.40;;;-2.60;99.90;;;;;;5018560;28;20048;-82
2021/01/27 03:34:56;;;;;;;6.25;2.80;;;-2.60;99.90;;;;;;5036340;28;20029;-82
2021/01/27 03:37:36;;;;;;;6.50;2.77;;;-2.70;99.90;;;;;;5036325;28;20432;-82
2021/01/27 03:40:07;;;;;;;10.40;2.80;;;-2.80;99.90;;;;;;5036181;28;20323;-82
2021/01/27 03:42:50;;;;;;;4.13;2.50;;;-2.80;99.90;;;;;;5036112;28;20069;-82
2021/01/27 03:45:18;;;;;;;7.27;2.70;;;-2.90;99.90;;;;;;5036165;28;20041;-82
2021/01/27 03:48:06;;;;;;;5.27;2.87;;;-2.90;99.90;;;;;;5036130;28;20097;-82
2021/01/27 03:50:34;;;;;;;8.57;2.60;;;-3.00;99.90;;;;;;5036041;28;20471;-83
2021/01/27 03:53:13;;;;;;;5.57;3.00;;;-3.00;99.90;;;;;;5018731;28;20108;-82
2021/01/27 03:55:47;;;;;;;3.83;2.47;;;-3.00;99.90;;;;;;5036005;28;20467;-82
2021/01/27 03:58:12;;;;;;;6.87;2.93;;;-3.00;99.90;;;;;;5018036;28;20485;-83
2021/01/27 04:00:38;;;;;;;4.73;2.50;;;-3.10;99.90;;;;;;5036083;28;20121;-82
2021/01/27 04:03:24;;;;;;;6.17;3.07;;;-3.10;99.90;;;;;;5036173;28;20188;-82
2021/01/27 04:05:49;;;;;;;;;;;-3.10;99.90;;;;;;5036135;28;20091;-82
2021/01/27 04:08:16;;;;;;;4.90;3.00;;;-3.20;99.90;;;;;;5035762;28;19904;-82
2021/01/27 04:10:41;;;;;;;6.13;2.67;;;-3.20;99.90;;;;;;5035670;28;20030;-82
2021/01/27 04:13:07;;;;;;;6.20;2.87;;;-3.30;99.90;;;;;;5035966;28;20029;-82
2021/01/27 04:15:33;;;;;;;5.90;3.03;;;-3.30;99.90;;;;;;5017743;28;20029;-82
2021/01/27 04:17:59;;;;;;;6.20;3.20;;;-3.30;99.90;;;;;;5035688;28;20014;-82
2021/01/27 04:20:26;;;;;;;7.57;3.10;;;-3.40;99.90;;;;;;5035523;28;20029;-82
2021/01/27 04:22:53;;;;;;;9.00;3.20;;;-3.40;99.90;;;;;;5035457;28;20375;-82
2021/01/27 04:25:19;;;;;;;4.57;2.90;;;-3.40;99.90;;;;;;5035400;28;20471;-82
2021/01/27 04:27:45;;;;;;;7.27;2.80;;;-3.40;99.90;;;;;;5017629;28;20171;-82
2021/01/27 04:30:14;;;;;;;6.23;2.60;;;-3.40;99.90;;;;;;5035286;28;20013;-82
2021/01/27 04:32:39;;;;;;;4.70;2.60;;;-3.50;99.90;;;;;;5035204;28;20025;-82
2021/01/27 04:35:06;;;;;;;4.33;2.70;;;-3.50;99.90;;;;;;5035274;28;20378;-82
2021/01/27 04:37:32;;;;;;;6.17;2.97;;;-3.50;99.90;;;;;;5035191;28;20029;-82
2021/01/27 04:39:57;;;;;;;5.10;3.00;;;-3.60;99.90;;;;;;5017786;28;20489;-82
2021/01/27 04:42:27;;;;;;;4.37;3.00;;;-3.60;99.90;;;;;;5017350;28;20030;-82
2021/01/27 04:44:55;;;;;;;5.50;3.10;;;-3.70;99.90;;;;;;5035434;28;20394;-82
2021/01/27 04:47:32;;;;;;;5.57;3.20;;;-3.70;99.90;;;;;;5035085;28;20104;-82
2021/01/27 04:50:05;;;;;;;8.17;3.23;;;-3.80;99.90;;;;;;5035251;28;20411;-82
2021/01/27 04:52:42;;;;;;;7.57;3.70;;;-3.80;99.90;;;;;;5034760;28;20095;-82
2021/01/27 04:55:34;;;;;;;21.73;5.40;;;-3.80;99.90;;;;;;5017026;28;20033;-82
2021/01/27 04:58:47;;;;;;;4.97;3.40;;;-3.90;99.90;;;;;;5016813;28;20560;-82
2021/01/27 05:01:46;;;;;;;13.17;4.27;;;-3.90;99.90;;;;;;4993399;28;20057;-82
2021/01/27 05:04:37;;;;;;;7.67;4.17;;;-3.90;99.90;;;;;;4993146;28;20026;-82
2021/01/27 05:07:10;;;;;;;7.77;3.80;;;-3.90;99.90;;;;;;5031563;28;20447;-82
2021/01/27 05:10:08;;;;;;;7.23;3.70;;;-3.90;99.90;;;;;;5034839;28;20080;-82
2021/01/27 05:13:01;;;;;;;11.07;3.77;;;-3.90;99.90;;;;;;5011929;28;20048;-82
2021/01/27 05:15:27;;;;;;;11.70;3.60;;;-3.90;99.90;;;;;;5034988;28;20025;-82
2021/01/27 05:17:54;;;;;;;7.67;3.60;;;-3.90;99.90;;;;;;5034592;28;20017;-82
2021/01/27 05:20:21;;;;;;;7.83;3.40;;;-3.90;99.90;;;;;;5034317;28;20479;-82
2021/01/27 05:22:47;;;;;;;5.83;3.50;;;-4.00;99.90;;;;;;5033050;28;20040;-82
2021/01/27 05:25:32;;;;;;;8.93;3.47;;;-4.00;99.90;;;;;;5034546;28;20112;-82
2021/01/27 05:27:59;;;;;;;8.10;3.20;;;-4.00;99.90;;;;;;5034343;28;20025;-82
2021/01/27 05:30:34;;;;;;;4.97;3.00;;;-4.10;99.90;;;;;;5034178;28;20057;-82
2021/01/27 05:33:00;;;;;;;6.32;3.10;;;-4.10;99.90;;;;;;5034422;28;20032;-82
2021/01/27 05:35:34;;;;;;;7.10;3.10;;;-4.20;99.90;;;;;;5034361;28;20029;-82
2021/01/27 05:38:30;;;;;;;10.57;3.33;;;-4.20;99.90;;;;;;5034402;28;20475;-82
2021/01/27 05:41:23;;;;;;;5.32;2.90;;;-4.20;99.90;;;;;;5034468;28;20125;-82
2021/01/27 05:43:53;;;;;;;11.97;3.67;;;-4.10;99.90;;;;;;5033475;28;20532;-82
2021/01/27 05:46:28;;;;;;;6.87;3.23;;;-4.10;99.90;;;;;;5016447;28;20040;-82
2021/01/27 05:48:54;;;;;;;7.80;3.30;;;-4.10;99.90;;;;;;5033884;28;20382;-82
2021/01/27 05:51:29;;;;;;;9.23;3.20;;;-4.20;99.90;;;;;;5034038;28;20109;-82
2021/01/27 05:53:55;;;;;;;8.93;3.23;;;-4.10;99.90;;;;;;5033752;28;20030;-82
2021/01/27 05:56:30;;;;;;;6.90;2.90;;;-4.10;99.90;;;;;;5033864;28;20042;-82
2021/01/27 05:59:00;;;;;;;;;;;-4.00;99.90;;;;;;5034087;28;20375;-82
2021/01/27 06:01:25;;;;;;;7.10;2.70;;;-4.00;99.90;;;;;;5033673;28;20247;-82
2021/01/27 06:04:17;;;;;;;5.33;2.40;;;-3.90;99.90;;;;;;5033663;28;20080;-82
2021/01/27 06:06:45;;;;;;;7.10;2.53;;;-4.00;99.90;;;;;;5033216;28;20040;-82
2021/01/27 06:09:12;;;;;;;7.47;2.83;;;-3.90;99.90;;;;;;5033483;28;20051;-82
2021/01/27 06:11:38;;;;;;;5.90;2.30;;;-3.90;99.90;;;;;;5015630;28;20505;-82
2021/01/27 06:14:12;;;;;;;8.90;2.20;;;-3.90;99.90;;;;;;5033448;28;20087;-82
2021/01/27 06:16:45;;;;;;;4.20;2.50;;;-3.80;99.90;;;;;;5033544;28;20029;-82
2021/01/27 06:19:11;;;;;;;6.03;2.50;;;-3.80;99.90;;;;;;5033483;28;20429;-83
2021/01/27 06:22:09;;;;;;;4.37;2.47;;;-3.80;99.90;;;;;;5016249;28;20033;-82
2021/01/27 06:24:51;;;;;;;4.33;2.27;;;-3.70;99.90;;;;;;5033508;28;20030;-82
2021/01/27 06:27:41;;;;;;;9.13;2.40;;;-3.70;99.90;;;;;;5045156;28;20098;-86
2021/01/27 06:30:15;;;;;;;5.50;2.70;;;-3.70;99.90;;;;;;5033483;28;20037;-87
2021/01/27 06:32:59;;;;;;;7.60;3.23;;;-3.60;99.90;;;;;;5044549;28;20025;-87
2021/01/27 06:35:39;;;;;;;8.97;2.93;;;-3.60;99.90;;;;;;5052611;28;20028;-87
2021/01/27 06:38:35;;;;;;;6.23;3.00;;;-3.70;99.90;;;;;;5045154;28;20469;-85
2021/01/27 06:41:41;;;;;;;5.70;2.80;;;-3.70;99.90;;;;;;5007896;28;20158;-85
2021/01/27 06:44:14;;;;;;;6.68;2.88;;;-3.70;99.90;;;;;;5033007;28;20120;-85
2021/01/27 06:47:24;;;;;;;9.37;2.73;;;-3.70;99.90;;;;;;5032908;28;20108;-85
2021/01/27 06:50:10;;;;;;;5.73;2.57;;;-3.70;99.90;;;;;;4979392;28;20040;-81
2021/01/27 06:52:36;;;;;;;6.40;2.47;;;-3.70;99.90;;;;;;5033105;28;20439;-81
2021/01/27 06:55:33;;;;;;;5.30;2.60;;;-3.70;99.90;;;;;;5034147;28;20100;-81
2021/01/27 06:58:13;;;;;;;3.93;2.40;;;-3.70;99.90;;;;;;5036940;28;20046;-81
2021/01/27 07:01:02;;;;;;;3.83;2.87;;;-3.70;99.90;;;;;;5036294;28;20036;-81
2021/01/27 07:03:31;;;;;;;7.67;2.73;;;-3.60;99.90;;;;;;5029293;28;20120;-81
2021/01/27 07:06:28;;;;;;;5.93;2.60;;;-3.70;99.90;;;;;;5036909;28;20025;-81
2021/01/27 07:09:24;;;;;;;4.33;2.60;;;-3.60;99.90;;;;;;5037182;28;20176;-82
2021/01/27 07:12:01;;;;;;;6.85;2.90;;;-3.60;99.90;;;;;;5019133;28;20029;-81
2021/01/27 07:15:06;;;;;;;8.50;2.40;;;-3.60;99.90;;;;;;5035454;28;20410;-81
2021/01/27 07:17:51;;;;;;;6.03;2.53;;;-3.50;99.90;;;;;;5042906;28;20031;-81
2021/01/27 07:21:03;;;;;;;5.80;3.10;;;-3.50;99.90;;;;;;5056677;28;20041;-81
2021/01/27 07:24:01;;;;;;;6.53;3.10;;;-3.60;99.90;;;;;;5029278;28;20025;-81
2021/01/27 07:26:48;;;;;;;8.20;2.80;;;-3.50;99.90;;;;;;5056475;28;20029;-81
2021/01/27 07:29:23;;;;;;;5.47;2.47;;;-3.50;99.90;;;;;;5056587;28;20031;-81
2021/01/27 07:31:55;;;;;;;7.82;3.10;;;-3.40;99.90;;;;;;5038386;28;20105;-81
2021/01/27 07:34:43;;;;;;;5.20;2.77;;;-3.30;99.90;;;;;;5056330;28;20113;-81
2021/01/27 07:37:24;;;;;;;6.40;2.80;;;-3.20;99.90;;;;;;5038454;28;20017;-81
2021/01/27 07:40:00;;;;;;;3.63;2.20;;;-3.10;99.90;;;;;;5056756;28;20025;-81
2021/01/27 07:42:38;;;;;;;3.63;2.30;;;-3.00;99.90;;;;;;5056127;28;20553;-81
2021/01/27 07:45:09;;;;;;;6.30;2.17;;;-2.90;99.90;;;;;;5056121;28;20025;-81
2021/01/27 07:47:46;;;;;;;6.53;2.40;;;-2.80;99.90;;;;;;5056071;28;20032;-82
2021/01/27 07:50:16;;;;;;;3.83;1.83;;;-2.80;99.90;;;;;;5056106;28;20101;-82
2021/01/27 07:53:19;;;;;;;4.53;2.70;;;-2.70;99.90;;;;;;5055927;28;20025;-81
2021/01/27 07:55:49;;;;;;;4.50;2.70;;;-2.60;99.90;;;;;;5055956;28;20017;-81
2021/01/27 07:58:27;;;;;;;4.90;2.60;;;-2.60;99.90;;;;;;5037818;28;20088;-81
2021/01/27 08:01:13;;;;;;;11.37;3.13;;;-2.60;99.90;;;;;;5054608;28;20055;-82
2021/01/27 08:03:42;;;;;;;;;;;-2.60;99.90;;;;;;5037700;28;20047;-81
2021/01/27 08:06:14;;;;;;;4.73;2.73;;;-2.60;99.90;;;;;;5055818;28;19904;-81
2021/01/27 08:08:49;;;;;;;6.67;2.83;;;-2.60;99.90;;;;;;5055692;28;20143;-81
2021/01/27 08:11:21;;;;;;;5.80;2.80;;;-2.60;99.90;;;;;;5038158;28;20025;-81
2021/01/27 08:13:47;;;;;;;4.17;2.63;;;-2.50;99.90;;;;;;5055810;28;20025;-81
2021/01/27 08:16:15;;;;;;;5.90;2.63;;;-2.50;99.90;;;;;;5037650;28;20029;-81
2021/01/27 08:19:12;;;;;;;5.90;2.73;;;-2.40;99.90;;;;;;5037549;28;20025;-81
2021/01/27 08:21:52;;;;;;;6.37;2.57;;;-2.30;99.90;;;;;;5055718;28;20032;-82
2021/01/27 08:24:39;;;;;;;8.73;2.73;;;-2.20;99.90;;;;;;5055320;28;20025;-82
2021/01/27 08:27:10;;;;;;;6.27;3.03;;;-2.00;99.90;;;;;;5037424;28;20039;-82
2021/01/27 08:29:56;;;;;;;4.87;2.93;;;-2.00;99.90;;;;;;5037755;28;20024;-82
2021/01/27 08:32:32;;;;;;;;;;;-1.90;99.90;;;;;;5038688;28;20441;-82
2021/01/27 08:35:32;;;;;;;4.82;2.92;;;-1.90;99.90;;;;;;5037458;28;19928;-82
2021/01/27 08:38:19;;;;;;;5.07;2.60;;;-1.80;99.90;;;;;;5038328;28;20033;-83
2021/01/27 08:40:44;;;;;;;3.97;2.20;;;-1.60;99.90;;;;;;5055417;28;20040;-83
2021/01/27 08:43:15;;;;;;;6.70;3.57;;;-1.50;99.90;;;;;;5037283;28;20021;-84
2021/01/27 08:45:41;;;;;;;4.77;2.60;;;-1.40;99.90;;;;;;5037039;28;20025;-83
2021/01/27 08:48:07;;;;;;;6.43;2.93;;;-1.30;99.90;;;;;;5055060;28;20222;-83
2021/01/27 08:50:35;;;;;;;4.73;2.73;;;-1.30;99.90;;;;;;5037136;28;20489;-83
2021/01/27 08:53:13;;;;;;;6.27;3.10;;;-1.20;99.90;;;;;;5054993;28;20060;-83
2021/01/27 08:55:55;;;;;;;6.60;2.60;;;-1.20;99.90;;;;;;5055178;28;20017;-83
2021/01/27 08:58:31;;;;;;;4.23;2.60;;;-1.30;99.90;;;;;;5037115;28;20041;-83
2021/01/27 09:01:06;;;;;;;5.90;2.57;;;-1.10;99.90;;;;;;5054874;28;20078;-83
2021/01/27 09:03:37;;;;;;;8.43;2.70;;;-1.00;99.90;;;;;;5054797;28;20057;-83
2021/01/27 09:06:05;;;;;;;6.80;2.53;;;-0.90;99.90;;;;;;5036916;28;20035;-83
2021/01/27 09:08:32;;;;;;;7.27;4.30;;;-0.70;99.90;;;;;;5055068;28;20025;-83
2021/01/27 09:11:02;;;;;;;5.67;3.00;;;-0.60;99.90;;;;;;5036589;28;20025;-83
2021/01/27 09:13:39;;;;;;;5.30;2.73;;;-0.50;99.90;;;;;;5054633;28;20123;-83
2021/01/27 09:16:16;;;;;;;10.37;3.83;;;-0.40;99.90;;;;;;5036680;28;20396;-83
2021/01/27 09:18:43;;;;;;;9.70;5.20;;;-0.30;99.90;;;;;;5053563;28;20025;-85
2021/01/27 09:21:19;;;;;;;5.80;3.60;;;-0.20;99.90;;;;;;5054239;28;20104;-82
2021/01/27 09:23:47;;;;;;;12.17;4.03;;;-0.10;99.90;;;;;;5054263;28;20048;-82
2021/01/27 09:26:21;;;;;;;6.37;3.70;;;0.00;99.90;;;;;;5054560;28;20029;-82
2021/01/27 09:28:48;;;;;;;6.27;3.93;;;0.10;99.90;;;;;;5054321;28;20082;-82
2021/01/27 09:31:27;;;;;;;8.43;4.80;;;0.10;99.90;;;;;;5036230;28;20287;-82
2021/01/27 09:33:53;;;;;;;7.87;3.40;;;0.20;99.90;;;;;;5054338;28;20021;-82
2021/01/27 09:36:23;;;;;;;10.73;3.90;;;0.30;99.90;;;;;;5037126;28;20024;-82
2021/01/27 09:38:58;;;;;;;6.23;3.70;;;0.40;99.90;;;;;;5054501;28;20458;-82
2021/01/27 09:41:28;;;;;;;9.20;3.88;;;0.40;99.90;;;;;;5054245;28;20021;-82
2021/01/27 09:43:55;;;;;;;6.63;2.60;;;0.60;99.90;;;;;;5054165;28;20210;-82
2021/01/27 09:46:26;;;;;;;5.97;2.73;;;0.80;99.90;;;;;;5054049;28;20106;-82
2021/01/27 09:48:54;;;;;;;6.47;3.47;;;1.00;99.90;;;;;;5052791;28;20474;-82
2021/01/27 09:51:20;;;;;;;5.40;2.30;;;1.20;99.90;;;;;;5035913;28;20052;-82
2021/01/27 09:53:46;;;;;;;6.50;2.80;;;1.40;99.90;;;;;;5053835;28;20021;-82
2021/01/27 09:56:19;;;;;;;7.60;3.20;;;1.50;99.90;;;;;;5054004;28;20020;-82
2021/01/27 09:58:44;;;;;;;6.77;3.57;;;1.60;99.90;;;;;;5053804;28;20428;-82
2021/01/27 10:01:19;;;;;;;5.70;3.60;;;1.70;99.90;;;;;;5053777;28;20045;-82
2021/01/27 10:03:46;;;;;;;3.83;2.50;;;1.80;99.90;;;;;;5053703;28;20450;-82
2021/01/27 10:06:42;;;;;;;5.57;3.13;;;2.00;99.90;;;;;;5053581;28;20075;-82
2021/01/27 10:09:21;;;;;;;4.40;2.57;;;2.00;99.90;;;;;;5019343;28;20535;-82
2021/01/27 10:11:57;;;;;;;5.53;3.40;;;1.90;99.90;;;;;;5053570;28;20040;-82
2021/01/27 10:14:24;;;;;;;8.70;3.43;;;1.90;99.90;;;;;;5053812;28;20025;-82
2021/01/27 10:16:59;;;;;;;9.10;3.80;;;1.80;99.90;;;;;;5053406;28;20040;-81
2021/01/27 10:19:31;;;;;;;9.05;4.18;;;1.70;99.90;;;;;;5035959;28;20025;-82
2021/01/27 10:21:59;;;;;;;5.60;2.97;;;1.60;99.90;;;;;;5053624;28;20025;-81
2021/01/27 10:24:47;;;;;;;5.90;2.77;;;1.60;99.90;;;;;;5053507;28;20021;-82
2021/01/27 10:27:19;;;;;;;7.33;2.90;;;1.50;99.90;;;;;;5053320;28;20025;-81
2021/01/27 10:29:45;;;;;;;5.93;2.90;;;1.50;99.90;;;;;;5053394;28;20051;-81
2021/01/27 10:32:33;;;;;;;7.10;2.97;;;1.60;99.90;;;;;;5035376;28;20377;-81
2021/01/27 10:34:59;;;;;;;4.03;2.60;;;1.70;99.90;;;;;;5053161;28;20017;-81
2021/01/27 10:37:28;;;;;;;4.40;2.30;;;1.70;99.90;;;;;;5053538;28;20075;-81
2021/01/27 10:40:26;;;;;;;3.73;2.00;;;1.70;99.90;;;;;;5053144;28;20045;-81
2021/01/27 10:43:02;;;;;;;3.23;2.27;;;1.80;99.90;;;;;;5053178;28;20535;-81
2021/01/27 10:45:27;;;;;;;5.37;2.00;;;1.80;99.90;;;;;;5053112;28;20021;-81
2021/01/27 10:47:59;;;;;;;4.17;2.07;;;1.90;99.90;;;;;;5053029;28;20016;-81
2021/01/27 10:50:27;;;;;;;4.67;2.07;;;2.00;99.90;;;;;;5053271;28;20040;-81
2021/01/27 10:52:54;;;;;;;2.40;1.80;;;2.10;99.90;;;;;;5035187;28;20175;-81
2021/01/27 10:55:21;;;;;;;4.23;2.17;;;2.20;99.90;;;;;;5035119;28;20108;-81
2021/01/27 10:57:46;;;;;;;5.03;2.37;;;2.20;99.90;;;;;;5052666;28;20100;-81
2021/01/27 11:00:16;;;;;;;4.37;2.20;;;2.20;99.90;;;;;;5052876;28;20025;-81
2021/01/27 11:02:42;;;;;;;3.27;1.87;;;2.20;99.90;;;;;;5052764;28;20025;-81
2021/01/27 11:05:08;;;;;;;7.03;2.10;;;2.30;99.90;;;;;;5052701;28;20063;-81
2021/01/27 11:07:33;;;;;;;6.03;2.67;;;2.30;99.90;;;;;;5052378;28;20098;-76
2021/01/27 11:09:59;;;;;;;4.87;2.50;;;2.30;99.90;;;;;;5052510;28;20466;-82
2021/01/27 11:12:24;;;;;;;5.27;2.70;;;2.40;99.90;;;;;;5052773;28;20056;-82
2021/01/27 11:14:50;;;;;;;3.73;1.87;;;2.50;99.90;;;;;;5052937;28;20055;-82
2021/01/27 11:17:15;;;;;;;5.10;2.10;;;2.50;99.90;;;;;;5035155;28;20021;-82
2021/01/27 11:19:41;;;;;;;4.97;1.97;;;2.50;99.90;;;;;;5052897;28;20071;-82
2021/01/27 11:22:07;;;;;;;4.30;2.00;;;2.40;99.90;;;;;;5034981;28;20116;-82
2021/01/27 11:24:32;;;;;;;5.93;2.10;;;2.40;99.90;;;;;;5034903;28;20036;-82
2021/01/27 11:26:58;;;;;;;4.37;1.90;;;2.30;99.90;;;;;;5034831;28;20033;-82
2021/01/27 11:29:23;;;;;;;2.97;1.90;;;2.30;99.90;;;;;;5052633;28;20029;-82
2021/01/27 11:31:49;;;;;;;5.30;2.10;;;2.40;99.90;;;;;;5052710;28;20029;-82
2021/01/27 11:34:15;;;;;;;4.23;2.23;;;2.40;99.90;;;;;;5052383;28;20086;-82
2021/01/27 11:36:40;;;;;;;8.33;2.20;;;2.40;99.90;;;;;;5052752;28;20036;-82
2021/01/27 11:39:09;;;;;;;4.60;2.27;;;2.30;99.90;;;;;;5053223;28;20033;-82
2021/01/27 11:41:35;;;;;;;4.93;2.23;;;2.40;99.90;;;;;;5054545;28;20056;-82
2021/01/27 11:44:01;;;;;;;4.57;2.50;;;2.20;99.90;;;;;;5056369;28;20470;-82
2021/01/27 11:46:26;;;;;;;6.13;2.30;;;2.20;99.90;;;;;;5056385;28;20029;-82
2021/01/27 11:48:52;;;;;;;4.63;2.33;;;2.20;99.90;;;;;;5056470;28;20029;-82
2021/01/27 11:51:17;;;;;;;5.03;2.33;;;2.10;99.90;;;;;;5038215;28;20025;-82
2021/01/27 11:53:43;;;;;;;4.00;2.40;;;2.20;99.90;;;;;;5056184;28;20482;-82
2021/01/27 11:56:10;;;;;;;4.23;2.10;;;2.00;99.90;;;;;;5038411;28;20056;-82
2021/01/27 11:58:36;;;;;;;4.77;2.43;;;1.90;99.90;;;;;;5055980;28;20029;-82
2021/01/27 12:01:02;;;;;;;6.77;2.87;;;1.80;99.90;;;;;;5056078;28;20037;-82
2021/01/27 12:03:27;;;;;;;8.03;2.70;;;1.70;99.90;;;;;;5038112;28;20032;-82
2021/01/27 12:05:53;;;;;;;4.30;2.40;;;1.70;99.90;;;;;;5056095;28;20090;-82
2021/01/27 12:08:19;;;;;;;6.27;2.43;;;1.80;99.90;;;;;;5056325;28;20029;-82
2021/01/27 12:10:47;;;;;;;3.80;2.30;;;1.80;99.90;;;;;;5037968;28;20029;-82
2021/01/27 12:13:13;;;;;;;5.13;3.10;;;1.70;99.90;;;;;;5037862;28;20025;-82
2021/01/27 12:15:39;;;;;;;5.30;2.33;;;1.80;99.90;;;;;;5060069;28;20025;-82
2021/01/27 12:18:06;;;;;;;5.13;2.43;;;1.80;99.90;;;;;;5055887;28;20037;-82
2021/01/27 12:20:32;;;;;;;4.67;2.20;;;1.70;99.90;;;;;;5055782;28;20029;-82
2021/01/27 12:22:58;;;;;;;3.63;2.10;;;1.70;99.90;;;;;;5055831;28;20031;-82
2021/01/27 12:25:24;;;;;;;4.40;1.90;;;1.60;99.90;;;;;;5055586;28;20053;-82
2021/01/27 12:27:50;;;;;;;3.33;2.10;;;1.60;99.90;;;;;;5055687;28;20025;-82
2021/01/27 12:30:17;;;;;;;4.03;2.30;;;1.60;99.90;;;;;;5055648;28;20527;-82
2021/01/27 12:32:42;;;;;;;6.47;2.10;;;1.50;99.90;;;;;;5055384;28;20029;-82
2021/01/27 12:35:10;;;;;;;3.70;2.20;;;1.60;99.90;;;;;;5055474;28;20116;-82
2021/01/27 12:37:36;;;;;;;3.93;2.20;;;1.50;99.90;;;;;;5055354;28;20363;-82
2021/01/27 12:40:03;;;;;;;2.60;1.70;;;1.60;99.90;;;;;;5037471;28;20058;-82
2021/01/27 12:42:29;;;;;;;5.00;2.20;;;1.60;99.90;;;;;;5055131;28;20120;-82
2021/01/27 12:44:54;;;;;;;5.83;2.37;;;1.60;99.90;;;;;;5055303;28;20152;-82
2021/01/27 12:47:22;;;;;;;4.43;1.70;;;1.60;99.90;;;;;;5037405;28;20457;-81
2021/01/27 12:49:48;;;;;;;4.23;1.60;;;1.60;99.90;;;;;;5055479;28;20021;-82
2021/01/27 12:52:14;;;;;;;5.23;2.20;;;1.60;99.90;;;;;;5055024;28;20025;-82
2021/01/27 12:54:40;;;;;;;2.53;1.70;;;1.60;99.90;;;;;;5037155;28;20032;-81
2021/01/27 12:57:05;;;;;;;2.77;1.50;;;1.60;99.90;;;;;;5054806;28;20102;-81
2021/01/27 12:59:31;;;;;;;2.77;1.73;;;1.40;99.90;;;;;;5055456;28;20450;-82
2021/01/27 13:01:57;;;;;;;3.27;1.50;;;1.40;99.90;;;;;;5037071;28;20036;-82
2021/01/27 13:04:22;;;;;;;2.27;1.50;;;1.50;99.90;;;;;;5054967;28;20465;-82
2021/01/27 13:06:48;;;;;;;4.93;1.43;;;1.40;99.90;;;;;;5037020;28;20083;-82
2021/01/27 13:09:13;;;;;;;2.30;1.63;;;1.40;99.90;;;;;;5036909;28;20063;-82
2021/01/27 13:11:39;;;;;;;4.17;1.80;;;1.30;99.90;;;;;;5036990;28;20082;-82
2021/01/27 13:14:05;;;;;;;3.97;1.57;;;1.30;99.90;;;;;;5036960;28;20025;-82
2021/01/27 13:16:30;;;;;;;2.47;1.60;;;1.40;99.90;;;;;;5054675;28;20029;-82
2021/01/27 13:18:56;;;;;;;3.90;1.90;;;1.30;99.90;;;;;;5036761;28;20025;-82